Time;durP1;ratioP1;P1;durP2;ratioP2;P2;SDS_P1;SDS_P2;PMS_P1;PMS_P2;Temp;Humidity;BMP_temperature;BMP_pressure;BME280_temperature;BME280_humidity;BME280_pressure;Samples;Min_cycle;Max_cycle;Signal;HPM_P1;HPM_P2
2023/02/03 00:01:34;;;;;;;14.43;3.20;;;;;;;-143.48;89.66;118439.88;5075353;28;20062;-68
2023/02/03 00:03:59;;;;;;;14.32;2.72;;;;;;;-143.48;89.29;118439.88;5075424;28;20039;-68
2023/02/03 00:06:25;;;;;;;12.45;2.70;;;;;;;-143.48;89.55;118439.88;5075290;28;20032;-68
2023/02/03 00:08:58;;;;;;;13.05;2.80;;;;;;;-143.48;88.61;118439.88;5075439;28;20016;-68
2023/02/03 00:11:24;;;;;;;14.52;2.75;;;;;;;-143.48;88.39;118439.88;5057222;28;20024;-68
2023/02/03 00:13:49;;;;;;;12.95;2.90;;;;;;;-143.48;88.92;118439.88;5075227;28;20103;-68
2023/02/03 00:16:15;;;;;;;12.10;2.97;;;;;;;-143.48;88.07;118439.88;5057182;28;20079;-68
2023/02/03 00:18:40;;;;;;;11.80;2.08;;;;;;;-143.48;88.77;118439.88;5075067;28;20475;-68
2023/02/03 00:21:05;;;;;;;12.18;2.45;;;;;;;-143.48;88.67;118439.88;5075197;28;20027;-68
2023/02/03 00:23:31;;;;;;;17.05;3.00;;;;;;;-143.48;88.84;118439.88;5074987;28;20143;-68
2023/02/03 00:26:11;;;;;;;10.25;2.67;;;;;;;-143.48;89.36;118439.88;5074979;28;20028;-68
2023/02/03 00:28:36;;;;;;;10.20;2.25;;;;;;;-143.48;88.37;118439.88;5074735;28;20043;-67
2023/02/03 00:31:02;;;;;;;11.18;2.38;;;;;;;-143.48;87.33;118439.88;5074059;28;20107;-68
2023/02/03 00:33:27;;;;;;;10.18;2.60;;;;;;;-143.48;87.44;118439.88;5074764;28;20024;-68
2023/02/03 00:35:52;;;;;;;12.90;2.30;;;;;;;-143.48;87.69;118439.88;5075003;28;20017;-68
2023/02/03 00:38:18;;;;;;;10.40;2.20;;;;;;;-143.48;88.45;118439.88;5074788;28;20380;-69
2023/02/03 00:40:52;;;;;;;12.80;2.72;;;;;;;-143.48;87.31;118439.88;5074638;28;20029;-67
2023/02/03 00:43:17;;;;;;;17.83;3.13;;;;;;;-143.48;87.34;118439.88;5074683;28;20032;-69
2023/02/03 00:45:42;;;;;;;13.23;2.70;;;;;;;-143.48;87.13;118439.88;5074627;28;20029;-68
2023/02/03 00:48:08;;;;;;;12.77;2.60;;;;;;;-143.48;87.04;118439.88;5074669;28;20475;-67
2023/02/03 00:50:33;;;;;;;8.73;2.33;;;;;;;-143.48;87.68;118439.88;5074356;28;20024;-67
2023/02/03 00:52:58;;;;;;;9.55;2.17;;;;;;;-143.48;87.42;118439.88;5074414;28;20045;-67
2023/02/03 00:55:23;;;;;;;10.85;2.60;;;;;;;-143.48;86.58;118439.88;5074305;28;20075;-68
2023/02/03 00:57:49;;;;;;;14.57;2.70;;;;;;;-143.48;86.79;118439.88;5056495;28;20019;-68
2023/02/03 01:00:15;;;;;;;11.02;2.80;;;;;;;-143.48;86.19;118439.88;5074391;28;20098;-68
2023/02/03 01:02:40;;;;;;;17.02;2.60;;;;;;;-143.48;86.67;118439.88;5074270;28;20025;-68
2023/02/03 01:05:06;;;;;;;9.90;2.15;;;;;;;-143.48;87.00;118439.88;5074270;28;20475;-69
2023/02/03 01:07:32;;;;;;;12.10;2.50;;;;;;;-143.48;87.10;118439.88;5074176;28;20025;-69
2023/02/03 01:09:57;;;;;;;15.57;2.55;;;;;;;-143.48;86.97;118439.88;5074156;28;20028;-67
2023/02/03 01:12:22;;;;;;;15.68;2.75;;;;;;;-143.48;86.26;118439.88;5056353;28;20119;-68
2023/02/03 01:14:48;;;;;;;11.98;2.30;;;;;;;-143.48;86.21;118439.88;5074431;28;20045;-68
2023/02/03 01:17:13;;;;;;;12.50;2.63;;;;;;;-143.48;85.93;118439.88;5073886;28;20131;-68
2023/02/03 01:19:38;;;;;;;15.02;3.17;;;;;;;-143.48;87.08;118439.88;5073852;28;20487;-68
2023/02/03 01:22:03;;;;;;;11.57;3.03;;;;;;;-143.48;86.62;118439.88;5055993;28;20043;-68
2023/02/03 01:24:29;;;;;;;9.90;2.25;;;;;;;-143.48;86.62;118439.88;5055959;28;20472;-67
2023/02/03 01:26:55;;;;;;;13.50;2.63;;;;;;;-143.48;86.04;118439.88;5074443;28;20021;-68
2023/02/03 01:29:20;;;;;;;9.48;2.42;;;;;;;-143.48;86.27;118439.88;5073961;28;20450;-67
2023/02/03 01:31:45;;;;;;;10.63;2.25;;;;;;;-143.48;85.89;118439.88;5073752;28;20023;-67
2023/02/03 01:34:13;;;;;;;8.73;2.10;;;;;;;-143.48;85.66;118439.88;5073852;28;20032;-68
2023/02/03 01:36:38;;;;;;;13.13;2.35;;;;;;;-143.48;85.33;118439.88;5073831;28;20062;-68
2023/02/03 01:39:04;;;;;;;11.50;2.60;;;;;;;-143.48;86.20;118439.88;5055673;28;20024;-68
2023/02/03 01:41:32;;;;;;;11.40;2.58;;;;;;;-143.48;86.13;118439.88;5073585;28;20111;-68
2023/02/03 01:44:00;;;;;;;11.85;2.00;;;;;;;-143.48;85.24;118439.88;5073717;28;20031;-68
2023/02/03 01:46:36;;;;;;;8.23;2.25;;;;;;;-143.48;86.04;118439.88;5055551;28;20051;-68
2023/02/03 01:49:17;;;;;;;10.63;2.08;;;;;;;-143.48;85.13;118439.88;5055541;28;20025;-68
2023/02/03 01:51:44;;;;;;;9.98;1.90;;;;;;;-143.48;85.06;118439.88;5073657;28;20021;-68
2023/02/03 01:54:14;;;;;;;10.23;1.92;;;;;;;-143.48;84.17;118439.88;5073333;28;20058;-68
2023/02/03 01:56:45;;;;;;;13.52;2.20;;;;;;;-143.48;84.24;118439.88;5073518;28;20024;-68
2023/02/03 01:59:14;;;;;;;13.15;2.47;;;;;;;-143.48;84.97;118439.88;5073170;28;20048;-68
2023/02/03 02:01:40;;;;;;;10.18;2.10;;;;;;;-143.48;83.79;118439.88;5073399;28;20028;-68
2023/02/03 02:04:06;;;;;;;13.68;2.00;;;;;;;-143.48;83.41;118439.88;5073343;28;20413;-68
2023/02/03 02:06:31;;;;;;;9.20;2.10;;;;;;;-143.48;83.63;118439.88;5073340;28;20063;-68
2023/02/03 02:08:59;;;;;;;11.48;2.00;;;;;;;-143.48;84.24;118439.88;5073399;28;20073;-68
2023/02/03 02:11:25;;;;;;;7.22;1.70;;;;;;;-143.48;83.87;118439.88;5055295;28;20016;-67
2023/02/03 02:13:53;;;;;;;9.57;2.03;;;;;;;-143.48;83.28;118439.88;5073132;28;20107;-68
2023/02/03 02:16:37;;;;;;;8.40;1.63;;;;;;;-143.48;82.93;118439.88;5073272;28;20029;-68
2023/02/03 02:19:33;;;;;;;5.80;1.40;;;;;;;-143.48;82.61;118439.88;5055138;28;20467;-68
2023/02/03 02:22:29;;;;;;;10.70;1.88;;;;;;;-143.48;82.88;118439.88;5073237;28;20032;-68
2023/02/03 02:25:15;;;;;;;10.02;1.90;;;;;;;-143.48;82.49;118439.88;5072740;28;20036;-68
2023/02/03 02:27:40;;;;;;;7.07;1.73;;;;;;;-143.48;81.60;118439.88;5055202;28;20020;-69
2023/02/03 02:30:17;;;;;;;11.40;1.98;;;;;;;-143.48;80.92;118439.88;5073130;28;20031;-68
2023/02/03 02:33:01;;;;;;;8.55;1.52;;;;;;;-143.48;81.65;118439.88;5073066;28;20560;-68
2023/02/03 02:35:56;;;;;;;11.52;1.95;;;;;;;-143.48;80.42;118439.88;5073267;28;20031;-68
2023/02/03 02:38:33;;;;;;;9.50;1.85;;;;;;;-143.48;81.64;118439.88;5073037;28;20075;-68
2023/02/03 02:41:12;;;;;;;5.78;1.40;;;;;;;-143.48;81.00;118439.88;5072973;28;20060;-69
2023/02/03 02:43:46;;;;;;;14.38;1.95;;;;;;;-143.48;82.01;118439.88;5073048;28;20024;-68
2023/02/03 02:46:23;;;;;;;7.32;1.58;;;;;;;-143.48;81.18;118439.88;5072941;28;20028;-69
2023/02/03 02:48:56;;;;;;;6.85;1.65;;;;;;;-143.48;81.56;118439.88;5073032;28;20472;-68
2023/02/03 02:51:22;;;;;;;6.93;1.63;;;;;;;-143.48;82.38;118439.88;5054755;28;20027;-69
2023/02/03 02:53:53;;;;;;;10.13;1.60;;;;;;;-143.48;81.73;118439.88;5075143;28;20491;-69
2023/02/03 02:56:20;;;;;;;10.45;1.50;;;;;;;-143.48;81.51;118439.88;5076513;28;20033;-68
2023/02/03 02:58:48;;;;;;;11.27;1.90;;;;;;;-143.48;81.67;118439.88;5076571;28;20028;-68
2023/02/03 03:01:15;;;;;;;10.18;1.95;;;;;;;-143.48;82.51;118439.88;5076599;28;20604;-68
2023/02/03 03:03:43;;;;;;;4.00;1.38;;;;;;;-143.48;82.56;118439.88;5058487;28;20422;-69
2023/02/03 03:06:15;;;;;;;7.88;1.70;;;;;;;-143.48;82.41;118439.88;5058643;28;20087;-68
2023/02/03 03:08:43;;;;;;;10.60;1.52;;;;;;;-143.48;82.96;118439.88;5076317;28;20067;-68
2023/02/03 03:11:08;;;;;;;11.55;1.67;;;;;;;-143.48;82.20;118439.88;5076314;28;20031;-68
2023/02/03 03:13:39;;;;;;;5.85;1.48;;;;;;;-143.48;82.80;118439.88;5076555;28;20021;-69
2023/02/03 03:16:08;;;;;;;11.90;1.67;;;;;;;-143.48;83.19;118439.88;5076230;28;20040;-69
2023/02/03 03:18:38;;;;;;;8.18;2.10;;;;;;;-143.48;82.88;118439.88;5076352;28;20020;-68
2023/02/03 03:21:05;;;;;;;12.90;2.58;;;;;;;-143.48;84.21;118439.88;5058435;28;20037;-69
2023/02/03 03:23:38;;;;;;;7.97;1.73;;;;;;;-143.48;82.84;118439.88;5058216;28;20028;-69
2023/02/03 03:26:42;;;;;;;8.85;2.00;;;;;;;-143.48;82.75;118439.88;5076146;28;20100;-68
2023/02/03 03:29:13;;;;;;;12.05;2.25;;;;;;;-143.48;83.12;118439.88;5025576;28;20036;-68
2023/02/03 03:31:40;;;;;;;12.98;2.10;;;;;;;-143.48;84.32;118439.88;5075934;28;20110;-68
2023/02/03 03:34:07;;;;;;;13.68;3.13;;;;;;;-143.48;83.53;118439.88;5058080;28;20174;-68
2023/02/03 03:36:43;;;;;;;9.38;1.90;;;;;;;-143.48;83.51;118439.88;5075912;28;20082;-68
2023/02/03 03:39:25;;;;;;;15.55;2.65;;;;;;;-143.48;84.04;118439.88;5075745;28;20043;-68
2023/02/03 03:42:30;;;;;;;8.63;2.05;;;;;;;-143.48;83.61;118439.88;5075836;28;20035;-69
2023/02/03 03:45:09;;;;;;;14.25;2.17;;;;;;;-143.48;83.76;118439.88;5075744;28;20038;-69
2023/02/03 03:47:46;;;;;;;10.23;2.08;;;;;;;-143.48;83.66;118439.88;5075720;28;20020;-68
2023/02/03 03:50:18;;;;;;;10.35;2.05;;;;;;;-143.48;83.46;118439.88;5075753;28;20028;-68
2023/02/03 03:52:46;;;;;;;8.80;1.95;;;;;;;-143.48;83.54;118439.88;5075481;28;20044;-68
2023/02/03 03:55:15;;;;;;;8.45;1.80;;;;;;;-143.48;84.55;118439.88;5075590;28;20032;-68
2023/02/03 03:57:47;;;;;;;10.23;1.90;;;;;;;-143.48;82.62;118439.88;5075582;28;20052;-69
2023/02/03 04:00:18;;;;;;;9.95;2.10;;;;;;;-143.48;82.67;118439.88;5057563;28;20497;-68
2023/02/03 04:02:50;;;;;;;8.00;1.90;;;;;;;-143.48;81.84;118439.88;5057536;28;20030;-69
2023/02/03 04:05:16;;;;;;;10.35;2.20;;;;;;;-143.48;83.31;118439.88;5075297;28;20439;-69
2023/02/03 04:07:43;;;;;;;10.95;1.95;;;;;;;-143.48;82.88;118439.88;5057611;28;20052;-67
2023/02/03 04:10:30;;;;;;;8.20;1.80;;;;;;;-143.48;82.39;118439.88;5075340;28;20036;-67
2023/02/03 04:12:55;;;;;;;15.27;1.73;;;;;;;-143.48;83.38;118439.88;5075398;28;20539;-66
2023/02/03 04:15:20;;;;;;;12.02;2.10;;;;;;;-143.48;82.93;118439.88;5075156;28;20028;-67
2023/02/03 04:17:46;;;;;;;10.90;1.85;;;;;;;-143.48;81.92;118439.88;5075162;28;20012;-69
2023/02/03 04:20:11;;;;;;;10.52;1.83;;;;;;;-143.48;82.97;118439.88;5075268;28;20483;-67
2023/02/03 04:22:37;;;;;;;9.60;1.48;;;;;;;-143.48;82.48;118439.88;5057162;28;20116;-67
2023/02/03 04:25:02;;;;;;;9.23;1.48;;;;;;;-143.48;83.12;118439.88;5075087;28;20029;-68
2023/02/03 04:27:28;;;;;;;8.15;1.60;;;;;;;-143.48;82.32;118439.88;5075082;28;20063;-68
2023/02/03 04:29:53;;;;;;;9.65;1.83;;;;;;;-143.48;83.01;118439.88;5057091;28;20017;-68
2023/02/03 04:32:18;;;;;;;11.32;1.80;;;;;;;-143.48;82.60;118439.88;5075003;28;20020;-68
2023/02/03 04:34:44;;;;;;;7.50;1.77;;;;;;;-143.48;82.74;118439.88;5074955;28;20414;-68
2023/02/03 04:37:10;;;;;;;11.68;1.95;;;;;;;-143.48;82.57;118439.88;5074733;28;20029;-68
2023/02/03 04:39:35;;;;;;;10.13;1.80;;;;;;;-143.48;83.33;118439.88;5074775;28;20059;-68
2023/02/03 04:42:00;;;;;;;8.27;1.60;;;;;;;-143.48;82.69;118439.88;5074832;28;20020;-68
2023/02/03 04:44:26;;;;;;;7.90;1.50;;;;;;;-143.48;83.54;118439.88;5056782;28;20450;-69
2023/02/03 04:46:51;;;;;;;11.45;2.08;;;;;;;-143.48;83.32;118439.88;5056835;28;20132;-69
2023/02/03 04:49:16;;;;;;;8.93;2.15;;;;;;;-143.48;83.45;118439.88;5074802;28;20069;-68
2023/02/03 04:51:43;;;;;;;9.07;1.77;;;;;;;-143.48;83.50;118439.88;5074517;28;20032;-68
2023/02/03 04:54:09;;;;;;;12.95;2.30;;;;;;;-143.48;83.48;118439.88;5074356;28;20048;-68
2023/02/03 04:56:35;;;;;;;14.20;1.80;;;;;;;-143.48;84.26;118439.88;5073044;28;20554;-68
2023/02/03 04:59:00;;;;;;;10.27;1.90;;;;;;;-143.48;83.64;118439.88;5054402;28;20387;-69
2023/02/03 05:01:26;;;;;;;16.02;2.47;;;;;;;-143.48;83.44;118439.88;5072421;28;20037;-69
2023/02/03 05:03:51;;;;;;;8.15;2.00;;;;;;;-143.48;83.11;118439.88;5072654;28;20032;-68
2023/02/03 05:06:23;;;;;;;9.43;1.85;;;;;;;-143.48;83.22;118439.88;5072874;28;20020;-68
2023/02/03 05:08:48;;;;;;;13.43;1.98;;;;;;;-143.48;83.64;118439.88;5054962;28;20070;-68
2023/02/03 05:11:13;;;;;;;16.02;1.98;;;;;;;-143.48;83.01;118439.88;5074624;28;20406;-69
2023/02/03 05:13:38;;;;;;;7.20;1.98;;;;;;;-143.48;84.37;118439.88;5075752;28;20052;-68
2023/02/03 05:16:04;;;;;;;10.38;1.98;;;;;;;-143.48;84.26;118439.88;5057426;28;20024;-69
2023/02/03 05:18:29;;;;;;;9.93;1.90;;;;;;;-143.48;84.55;118439.88;5077154;28;20029;-68
2023/02/03 05:20:55;;;;;;;10.43;2.20;;;;;;;-143.48;84.18;118439.88;5076888;28;20074;-68
2023/02/03 05:23:20;;;;;;;7.22;1.50;;;;;;;-143.48;84.04;118439.88;5076903;28;20029;-69
2023/02/03 05:25:46;;;;;;;17.77;2.10;;;;;;;-143.48;84.17;118439.88;5078123;28;20039;-68
2023/02/03 05:28:11;;;;;;;9.90;1.98;;;;;;;-143.48;84.15;118439.88;5088041;28;20025;-69
2023/02/03 05:30:36;;;;;;;10.85;1.67;;;;;;;-143.48;84.66;118439.88;5093070;28;20024;-68
2023/02/03 05:33:02;;;;;;;8.75;1.73;;;;;;;-143.48;84.28;118439.88;5093292;28;20024;-68
2023/02/03 05:35:27;;;;;;;10.25;1.80;;;;;;;-143.48;84.40;118439.88;5092855;28;20047;-69
2023/02/03 05:37:52;;;;;;;12.93;1.92;;;;;;;-143.48;84.08;118439.88;5094578;28;20044;-69
2023/02/03 05:43:02;;;;;;;11.35;2.25;;;;;;;-143.48;84.97;118439.88;5096132;28;20063;-68
2023/02/03 05:45:27;;;;;;;15.18;1.98;;;;;;;-143.48;85.17;118439.88;5078431;28;20005;-68
2023/02/03 05:47:52;;;;;;;14.73;2.00;;;;;;;-143.48;85.43;118439.88;5096057;28;20032;-68
2023/02/03 05:50:18;;;;;;;8.23;1.80;;;;;;;-143.48;84.76;118439.88;5095977;28;20012;-67
2023/02/03 05:52:43;;;;;;;11.10;1.98;;;;;;;-143.48;84.43;118439.88;5079874;28;20048;-68
2023/02/03 05:55:08;;;;;;;10.95;1.98;;;;;;;-143.48;85.03;118439.88;5078834;28;20035;-69
2023/02/03 05:57:34;;;;;;;11.40;2.10;;;;;;;-143.48;84.90;118439.88;5095499;28;20092;-68
2023/02/03 05:59:59;;;;;;;14.18;2.22;;;;;;;-143.48;84.71;118439.88;5079003;28;20012;-67
2023/02/03 06:02:24;;;;;;;14.45;2.03;;;;;;;-143.48;84.89;118439.88;5096146;28;20032;-68
2023/02/03 06:04:50;;;;;;;16.83;2.50;;;;;;;-143.48;84.79;118439.88;5095518;28;20028;-68
2023/02/03 06:07:15;;;;;;;9.40;1.48;;;;;;;-143.48;85.70;118439.88;5084233;28;20037;-68
2023/02/03 06:09:40;;;;;;;11.90;1.95;;;;;;;-143.48;84.92;118439.88;5077626;28;20058;-68
2023/02/03 06:12:06;;;;;;;17.27;2.15;;;;;;;-143.48;85.23;118439.88;5075309;28;20021;-68
2023/02/03 06:14:31;;;;;;;14.85;2.10;;;;;;;-143.48;85.20;118439.88;5057574;28;20024;-68
2023/02/03 06:16:56;;;;;;;16.70;2.53;;;;;;;-143.48;84.98;118439.88;5059569;28;20104;-68
2023/02/03 06:19:21;;;;;;;13.23;2.35;;;;;;;-143.48;85.38;118439.88;5075741;28;20530;-67
2023/02/03 06:21:47;;;;;;;17.85;2.25;;;;;;;-143.48;86.00;118439.88;5056988;28;20028;-67
2023/02/03 06:24:12;;;;;;;15.05;2.20;;;;;;;-143.48;85.93;118439.88;5075117;28;20112;-67
2023/02/03 06:26:37;;;;;;;18.83;2.50;;;;;;;-143.48;85.85;118439.88;5056608;28;20127;-67
2023/02/03 06:29:03;;;;;;;15.77;2.35;;;;;;;-143.48;85.65;118439.88;5077096;28;20108;-67
2023/02/03 06:31:28;;;;;;;14.48;2.03;;;;;;;-143.48;85.48;118439.88;5079627;28;20074;-67
2023/02/03 06:33:56;;;;;;;11.98;2.03;;;;;;;-143.48;85.49;118439.88;5077616;28;20039;-67
2023/02/03 06:36:22;;;;;;;15.88;2.22;;;;;;;-143.48;85.77;118439.88;5059692;28;20032;-68
2023/02/03 06:38:48;;;;;;;11.18;2.10;;;;;;;-143.48;86.04;118439.88;5077223;28;20033;-68
2023/02/03 06:41:13;;;;;;;14.38;2.83;;;;;;;-143.48;86.19;118439.88;5077887;28;20064;-68
2023/02/03 06:43:38;;;;;;;15.63;2.40;;;;;;;-143.48;86.00;118439.88;5059223;28;20021;-68
2023/02/03 06:46:03;;;;;;;12.55;2.00;;;;;;;-143.48;86.25;118439.88;5076950;28;20517;-67
2023/02/03 06:48:29;;;;;;;13.27;2.25;;;;;;;-143.48;86.85;118439.88;5058760;28;20029;-67
2023/02/03 06:50:54;;;;;;;18.02;3.22;;;;;;;-143.48;87.31;118439.88;5077177;28;20035;-68
2023/02/03 06:53:20;;;;;;;13.70;2.08;;;;;;;-143.48;87.16;118439.88;5058868;28;20052;-67
2023/02/03 06:55:46;;;;;;;19.58;2.95;;;;;;;-143.48;86.50;118439.88;5076862;28;20028;-67
2023/02/03 06:58:12;;;;;;;10.93;2.10;;;;;;;-143.48;87.42;118439.88;5059615;28;20043;-67
2023/02/03 07:00:37;;;;;;;19.38;3.45;;;;;;;-143.48;87.42;118439.88;5080036;28;20028;-67
2023/02/03 07:03:03;;;;;;;17.48;2.53;;;;;;;-143.48;86.88;118439.88;5078405;28;20024;-68
2023/02/03 07:05:28;;;;;;;11.07;2.08;;;;;;;-143.48;87.03;118439.88;5059630;28;20051;-68
2023/02/03 07:07:54;;;;;;;18.27;2.40;;;;;;;-143.48;87.23;118439.88;5077387;28;20472;-68
2023/02/03 07:10:19;;;;;;;15.77;2.45;;;;;;;-143.48;86.59;118439.88;5081911;28;20035;-68
2023/02/03 07:12:45;;;;;;;20.33;2.55;;;;;;;-143.48;87.19;118439.88;5080531;28;20107;-68
2023/02/03 07:15:11;;;;;;;12.52;2.42;;;;;;;-143.48;86.97;118439.88;5078261;28;20052;-68
2023/02/03 07:17:37;;;;;;;13.43;2.65;;;;;;;-143.48;87.17;118439.88;5080058;28;20040;-68
2023/02/03 07:20:03;;;;;;;16.08;2.55;;;;;;;-143.48;87.16;118439.88;5076932;28;20021;-68
2023/02/03 07:22:28;;;;;;;19.95;2.60;;;;;;;-143.48;86.98;118439.88;5075501;28;20058;-68
2023/02/03 07:24:53;;;;;;;13.20;2.15;;;;;;;-143.48;88.40;118439.88;5073915;28;20501;-68
2023/02/03 07:27:19;;;;;;;14.93;2.60;;;;;;;-143.48;88.09;118439.88;5073959;28;20501;-67
2023/02/03 07:29:44;;;;;;;17.70;2.50;;;;;;;-143.48;87.97;118439.88;5074093;28;20020;-68
2023/02/03 07:32:10;;;;;;;17.60;2.83;;;;;;;-143.48;87.40;118439.88;5075616;28;20056;-67
2023/02/03 07:34:35;;;;;;;13.10;2.50;;;;;;;-143.48;87.36;118439.88;5075992;28;20475;-67
2023/02/03 07:37:00;;;;;;;17.80;2.75;;;;;;;-143.48;87.28;118439.88;5076031;28;20029;-68
2023/02/03 07:39:26;;;;;;;19.10;2.60;;;;;;;-143.48;87.24;118439.88;5075483;28;20016;-68
2023/02/03 07:41:51;;;;;;;20.35;2.80;;;;;;;-143.48;88.38;118439.88;5075872;28;20052;-68
2023/02/03 07:44:16;;;;;;;16.52;2.38;;;;;;;-143.48;87.88;118439.88;5076047;28;20471;-68
2023/02/03 07:46:43;;;;;;;18.88;2.72;;;;;;;-143.48;87.91;118439.88;5066039;28;20032;-66
2023/02/03 07:49:12;;;;;;;15.75;2.10;;;;;;;-143.48;87.32;118439.88;5079986;28;20513;-70
2023/02/03 07:51:38;;;;;;;16.60;3.45;;;;;;;-143.48;87.27;118439.88;5080290;28;20030;-71
2023/02/03 07:54:03;;;;;;;15.40;2.40;;;;;;;-143.48;87.45;118439.88;5084851;28;20045;-70
2023/02/03 07:56:31;;;;;;;19.45;2.25;;;;;;;-143.48;87.21;118439.88;5081737;28;20048;-69
2023/02/03 07:58:57;;;;;;;16.02;2.50;;;;;;;-143.48;87.74;118439.88;5058342;28;20046;-70
2023/02/03 08:01:22;;;;;;;16.73;2.58;;;;;;;-143.48;87.57;118439.88;5077254;28;20077;-70
2023/02/03 08:03:47;;;;;;;11.52;2.10;;;;;;;-143.48;87.65;118439.88;5077156;28;20024;-69
2023/02/03 08:06:13;;;;;;;16.77;3.47;;;;;;;-143.48;87.09;118439.88;5076699;28;20033;-70
2023/02/03 08:08:39;;;;;;;14.48;3.00;;;;;;;-143.48;87.33;118439.88;5076847;28;20013;-70
2023/02/03 08:11:05;;;;;;;10.45;2.20;;;;;;;-143.48;87.66;118439.88;5075623;28;20024;-71
2023/02/03 08:13:31;;;;;;;13.27;2.10;;;;;;;-143.48;87.21;118439.88;5074106;28;20108;-70
2023/02/03 08:15:56;;;;;;;10.57;2.15;;;;;;;-143.48;87.46;118439.88;5074277;28;20074;-70
2023/02/03 08:18:21;;;;;;;16.30;2.83;;;;;;;-143.48;86.97;118439.88;5073931;28;20030;-69
2023/02/03 08:20:47;;;;;;;16.10;2.53;;;;;;;-143.48;87.26;118439.88;5074271;28;20367;-69
2023/02/03 08:23:13;;;;;;;17.58;2.25;;;;;;;-143.48;87.53;118439.88;5074053;28;20028;-70
2023/02/03 08:25:38;;;;;;;13.85;2.03;;;;;;;-143.48;86.91;118439.88;5074051;28;20024;-70
2023/02/03 08:28:03;;;;;;;18.17;2.70;;;;;;;-143.48;86.82;118439.88;5074221;28;20027;-70
2023/02/03 08:30:28;;;;;;;23.67;2.97;;;;;;;-143.48;87.17;118439.88;5074537;28;20029;-70
2023/02/03 08:32:54;;;;;;;14.43;2.40;;;;;;;-143.48;87.14;118439.88;5074319;28;20391;-70
2023/02/03 08:35:19;;;;;;;17.67;2.95;;;;;;;-143.48;87.14;118439.88;5075165;28;20024;-70
2023/02/03 08:37:44;;;;;;;22.20;2.72;;;;;;;-143.48;86.69;118439.88;5075350;28;20509;-70
2023/02/03 08:40:11;;;;;;;12.10;3.28;;;;;;;-143.48;86.94;118439.88;5075795;28;20150;-70
2023/02/03 08:42:36;;;;;;;14.13;2.47;;;;;;;-143.48;86.56;118439.88;5075275;28;20047;-70
2023/02/03 08:45:02;;;;;;;12.10;2.55;;;;;;;-143.48;86.90;118439.88;5075090;28;20032;-70
2023/02/03 08:47:27;;;;;;;15.57;2.70;;;;;;;-143.48;86.87;118439.88;5057750;28;20027;-70
2023/02/03 08:49:53;;;;;;;14.77;2.50;;;;;;;-143.48;86.09;118439.88;5056857;28;20030;-70
2023/02/03 08:52:18;;;;;;;15.73;2.40;;;;;;;-143.48;86.33;118439.88;5075471;28;20045;-70
2023/02/03 08:54:44;;;;;;;16.00;2.67;;;;;;;-143.48;86.16;118439.88;5059957;28;20123;-70
2023/02/03 08:57:10;;;;;;;14.10;2.42;;;;;;;-143.48;86.18;118439.88;5076085;28;20476;-70
2023/02/03 08:59:40;;;;;;;15.13;2.65;;;;;;;-143.48;86.02;118439.88;5075516;28;20016;-70
2023/02/03 09:02:08;;;;;;;13.80;2.60;;;;;;;-143.48;85.99;118439.88;5077056;28;20096;-70
2023/02/03 09:04:34;;;;;;;11.35;2.40;;;;;;;-143.48;85.86;118439.88;5082967;28;20077;-70
2023/02/03 09:07:01;;;;;;;12.63;2.33;;;;;;;-143.48;85.15;118439.88;5076673;28;20437;-71
2023/02/03 09:09:27;;;;;;;17.42;2.63;;;;;;;-143.48;85.29;118439.88;5061376;28;20368;-71
2023/02/03 09:11:59;;;;;;;13.68;2.70;;;;;;;-143.48;84.96;118439.88;5076962;28;20021;-69
2023/02/03 09:14:25;;;;;;;16.50;2.83;;;;;;;-143.48;85.08;118439.88;5075704;28;20107;-72
2023/02/03 09:16:51;;;;;;;12.38;2.80;;;;;;;-143.48;85.00;118439.88;5057941;28;20334;-71
2023/02/03 09:19:17;;;;;;;12.40;2.25;;;;;;;-143.48;84.59;118439.88;5075366;28;20103;-71
2023/02/03 09:21:42;;;;;;;9.88;2.35;;;;;;;-143.48;84.22;118439.88;5075720;28;20065;-71
2023/02/03 09:24:08;;;;;;;12.88;2.88;;;;;;;-143.48;84.22;118439.88;5075006;28;20052;-70
2023/02/03 09:26:33;;;;;;;12.52;2.83;;;;;;;-143.48;85.41;118439.88;5075514;28;20087;-71
2023/02/03 09:28:59;;;;;;;13.10;2.42;;;;;;;-143.48;84.96;118439.88;5076656;28;20023;-71
2023/02/03 09:31:24;;;;;;;13.50;2.33;;;;;;;-143.48;84.72;118439.88;5058139;28;20029;-71
2023/02/03 09:33:49;;;;;;;15.93;2.35;;;;;;;-143.48;84.32;118439.88;5057578;28;20143;-70
2023/02/03 09:36:15;;;;;;;11.23;2.10;;;;;;;-143.48;84.18;118439.88;5075048;28;20033;-72
2023/02/03 09:38:41;;;;;;;15.45;2.47;;;;;;;-143.48;84.35;118439.88;5075298;28;20083;-72
2023/02/03 09:41:22;;;;;;;11.98;2.80;;;;;;;-143.48;84.68;118439.88;5075331;28;20369;-71
2023/02/03 09:43:56;;;;;;;15.10;2.50;;;;;;;-143.48;84.13;118439.88;5074588;28;20036;-71
2023/02/03 09:46:25;;;;;;;12.63;2.80;;;;;;;-143.48;83.63;118439.88;5075670;28;20056;-71
2023/02/03 09:48:57;;;;;;;18.85;2.40;;;;;;;-143.48;84.61;118439.88;5075056;28;20108;-71
2023/02/03 09:51:33;;;;;;;14.60;2.50;;;;;;;-143.48;84.55;118439.88;5074776;28;20027;-72
2023/02/03 09:54:15;;;;;;;13.23;2.40;;;;;;;-143.48;83.82;118439.88;5074465;28;20040;-70
2023/02/03 09:56:48;;;;;;;10.10;1.98;;;;;;;-143.48;84.52;118439.88;5075120;28;20020;-71
2023/02/03 09:59:14;;;;;;;14.75;2.10;;;;;;;-143.48;83.69;118439.88;5075240;28;20028;-71
2023/02/03 10:01:58;;;;;;;16.85;2.38;;;;;;;-143.48;84.27;118439.88;5074751;28;20489;-70
2023/02/03 10:04:38;;;;;;;9.50;2.08;;;;;;;-143.48;84.26;118439.88;5055556;28;20035;-70
2023/02/03 10:07:07;;;;;;;15.20;2.00;;;;;;;-143.48;84.58;118439.88;5074696;28;20021;-69
2023/02/03 10:10:04;;;;;;;11.18;2.08;;;;;;;-143.48;83.88;118439.88;5056289;28;20033;-68
2023/02/03 10:12:52;;;;;;;11.00;2.22;;;;;;;-143.48;83.35;118439.88;5071040;28;20036;-70
2023/02/03 10:15:43;;;;;;;12.05;2.13;;;;;;;-143.48;82.60;118439.88;5055544;28;20050;-71
2023/02/03 10:18:28;;;;;;;13.57;1.73;;;;;;;-143.48;83.63;118439.88;5072031;28;20079;-70
2023/02/03 10:20:59;;;;;;;14.95;2.30;;;;;;;-143.48;83.14;118439.88;5055595;28;20043;-72
2023/02/03 10:23:38;;;;;;;12.20;2.13;;;;;;;-143.48;83.93;118439.88;5074616;28;20021;-71
2023/02/03 10:26:08;;;;;;;12.15;2.17;;;;;;;-143.48;83.81;118439.88;5074058;28;20033;-70
2023/02/03 10:28:39;;;;;;;13.18;2.28;;;;;;;-143.48;83.90;118439.88;5072340;28;20029;-72
2023/02/03 10:31:19;;;;;;;9.68;1.95;;;;;;;-143.48;83.70;118439.88;5073306;28;20483;-71
2023/02/03 10:33:46;;;;;;;13.35;2.63;;;;;;;-143.48;83.02;118439.88;5073998;28;20021;-71
2023/02/03 10:36:19;;;;;;;17.58;2.30;;;;;;;-143.48;82.80;118439.88;5073138;28;20016;-73
2023/02/03 10:39:00;;;;;;;12.25;1.90;;;;;;;-143.48;81.82;118439.88;5054957;28;20116;-72
2023/02/03 10:41:28;;;;;;;14.68;2.33;;;;;;;-143.48;83.06;118439.88;5073654;28;20032;-72
2023/02/03 10:43:54;;;;;;;8.90;2.13;;;;;;;-143.48;82.58;118439.88;5057515;28;20016;-71
2023/02/03 10:46:27;;;;;;;15.02;2.33;;;;;;;-143.48;83.46;118439.88;5075053;28;20029;-72
2023/02/03 10:48:52;;;;;;;12.77;2.17;;;;;;;-143.48;83.64;118439.88;5074460;28;20028;-71
2023/02/03 10:51:19;;;;;;;13.43;2.13;;;;;;;-143.48;83.57;118439.88;5080994;28;20047;-69
2023/02/03 10:53:45;;;;;;;9.07;2.13;;;;;;;-143.48;83.21;118439.88;5074933;28;20048;-70
2023/02/03 10:56:14;;;;;;;8.00;1.98;;;;;;;-143.48;83.04;118439.88;5075282;28;20032;-70
2023/02/03 10:58:48;;;;;;;14.25;2.63;;;;;;;-143.48;83.23;118439.88;5056274;28;20487;-71
2023/02/03 11:01:20;;;;;;;11.23;2.08;;;;;;;-143.48;83.38;118439.88;5072695;28;20024;-71
2023/02/03 11:04:00;;;;;;;12.48;2.20;;;;;;;-143.48;83.04;118439.88;5072795;28;20036;-70
2023/02/03 11:06:27;;;;;;;11.55;2.78;;;;;;;-143.48;83.83;118439.88;5073430;28;20039;-70
2023/02/03 11:08:52;;;;;;;8.88;2.05;;;;;;;-143.48;83.86;118439.88;5072993;28;20032;-68
2023/02/03 11:11:27;;;;;;;10.68;2.53;;;;;;;-143.48;84.24;118439.88;5055397;28;20032;-70
2023/02/03 11:14:08;;;;;;;10.90;2.17;;;;;;;-143.48;83.30;118439.88;5055951;28;20123;-69